Time;durP1;ratioP1;P1;durP2;ratioP2;P2;SDS_P1;SDS_P2;PMS_P1;PMS_P2;Temp;Humidity;BMP_temperature;BMP_pressure;BME280_temperature;BME280_humidity;BME280_pressure;Samples;Min_cycle;Max_cycle;Signal;HPM_P1;HPM_P2
2023/10/11 00:00:44;;;;;;;8.23;2.60;;;;;;;20.79;64.57;100713.97;5005644;28;20033;-48
2023/10/11 00:03:18;;;;;;;9.25;2.65;;;;;;;20.53;65.53;100707.78;4998763;28;20033;-51
2023/10/11 00:05:46;;;;;;;7.53;2.50;;;;;;;20.33;66.39;100711.34;5012261;28;20044;-51
2023/10/11 00:08:16;;;;;;;7.68;2.38;;;;;;;20.31;65.85;100700.72;5006471;28;20044;-51
2023/10/11 00:10:55;;;;;;;8.95;2.47;;;;;;;20.18;66.77;100695.84;5000080;28;20372;-49
2023/10/11 00:13:33;;;;;;;8.43;2.65;;;;;;;20.17;67.43;100696.94;4994030;28;20038;-51
2023/10/11 00:16:07;;;;;;;8.32;2.30;;;;;;;20.17;68.17;100694.22;4997009;28;20033;-50
2023/10/11 00:18:35;;;;;;;7.03;2.53;;;;;;;20.11;69.33;100706.19;4992182;28;20493;-47
2023/10/11 00:21:15;;;;;;;13.43;3.35;;;;;;;19.94;69.89;100709.19;5003247;28;20474;-48
2023/10/11 00:23:46;;;;;;;11.60;2.17;;;;;;;19.92;70.02;100710.53;4994916;28;20034;-49
2023/10/11 00:26:14;;;;;;;6.72;2.45;;;;;;;19.82;70.88;100705.09;5009235;28;20052;-60
2023/10/11 00:28:41;;;;;;;6.70;2.20;;;;;;;19.70;70.72;100700.72;5011603;28;20030;-48
2023/10/11 00:31:16;;;;;;;6.43;2.33;;;;;;;19.78;70.52;100696.69;4995752;28;20026;-49
2023/10/11 00:33:43;;;;;;;6.97;2.28;;;;;;;19.68;71.15;100702.91;5012161;28;20030;-49
2023/10/11 00:36:10;;;;;;;7.70;2.70;;;;;;;19.59;72.07;100699.09;5001586;28;20036;-46
2023/10/11 00:38:50;;;;;;;8.00;2.63;;;;;;;19.47;73.78;100693.06;5009872;28;20034;-48
2023/10/11 00:41:19;;;;;;;10.02;3.00;;;;;;;19.33;76.21;100695.50;5002624;28;20075;-51
2023/10/11 00:43:49;;;;;;;10.30;3.03;;;;;;;19.30;76.35;100704.16;4997676;28;20019;-50
2023/10/11 00:46:19;;;;;;;10.52;2.67;;;;;;;19.15;76.61;100690.53;4992100;28;20085;-51
2023/10/11 00:48:59;;;;;;;12.00;3.20;;;;;;;19.07;78.04;100688.34;4992482;28;20018;-52
2023/10/11 00:51:30;;;;;;;10.32;2.83;;;;;;;19.04;79.01;100683.44;4994407;28;20038;-50
2023/10/11 00:54:01;;;;;;;12.13;2.83;;;;;;;18.95;79.78;100678.56;5012212;28;20064;-51
2023/10/11 00:56:34;;;;;;;9.25;2.55;;;;;;;18.86;79.69;100682.03;5012088;28;20025;-51
2023/10/11 00:59:10;;;;;;;10.80;2.97;;;;;;;18.78;80.97;100685.25;5012487;28;20026;-50
2023/10/11 01:01:37;;;;;;;15.05;3.25;;;;;;;18.68;81.84;100686.03;5012102;28;20030;-51
2023/10/11 01:04:04;;;;;;;8.82;2.40;;;;;;;18.69;81.62;100687.66;5004220;28;20068;-52
2023/10/11 01:06:30;;;;;;;11.05;2.63;;;;;;;18.71;81.61;100686.31;5040680;28;20040;-52
2023/10/11 01:08:56;;;;;;;7.53;2.65;;;;;;;18.57;82.52;100679.69;5010244;28;20049;-53
2023/10/11 01:11:24;;;;;;;8.40;2.67;;;;;;;18.69;82.55;100684.94;5035779;28;20029;-53
2023/10/11 01:13:51;;;;;;;7.05;1.85;;;;;;;18.78;82.15;100674.41;5004645;28;20578;-53
2023/10/11 01:16:28;;;;;;;8.00;2.33;;;;;;;18.75;82.55;100675.75;5010349;23;20111;-53
2023/10/11 01:18:55;;;;;;;7.82;2.10;;;;;;;18.67;83.27;100670.81;4987326;28;20096;-51
2023/10/11 01:21:21;;;;;;;9.50;2.58;;;;;;;18.62;83.46;100673.50;4996363;28;20022;-53
2023/10/11 01:23:50;;;;;;;5.43;2.05;;;;;;;18.67;82.97;100666.22;4996261;28;20035;-53
2023/10/11 01:26:17;;;;;;;7.07;2.28;;;;;;;18.65;83.49;100668.34;4996292;28;20030;-52
2023/10/11 01:28:51;;;;;;;4.32;1.92;;;;;;;18.59;84.68;100672.09;4991280;28;20738;-51
2023/10/11 01:31:17;;;;;;;6.38;1.92;;;;;;;18.67;83.87;100670.81;4985906;28;20238;-52
2023/10/11 01:33:48;;;;;;;7.65;1.77;;;;;;;18.71;84.04;100675.47;4996178;28;20037;-52
2023/10/11 01:36:15;;;;;;;7.28;2.60;;;;;;;18.63;84.12;100677.81;4994577;28;20077;-54
2023/10/11 01:38:48;;;;;;;4.45;1.88;;;;;;;18.58;84.47;100681.31;4995947;28;20386;-53
2023/10/11 01:41:16;;;;;;;7.82;2.20;;;;;;;18.33;86.09;100678.47;4982707;28;20034;-51
2023/10/11 01:43:45;;;;;;;8.73;2.60;;;;;;;18.38;85.20;100679.34;4991176;28;20062;-51
2023/10/11 01:46:22;;;;;;;6.07;2.10;;;;;;;18.44;86.03;100674.75;4995686;28;20404;-53
2023/10/11 01:48:51;;;;;;;5.88;2.00;;;;;;;18.42;86.63;100675.00;4996007;28;20037;-52
2023/10/11 01:51:27;;;;;;;5.55;1.70;;;;;;;18.37;87.43;100668.72;4992409;28;20070;-53
2023/10/11 01:53:55;;;;;;;5.05;1.88;;;;;;;18.22;88.11;100671.38;4976453;28;20022;-54
2023/10/11 01:56:24;;;;;;;6.43;1.90;;;;;;;18.34;88.08;100659.25;4994147;28;20077;-53
2023/10/11 01:59:00;;;;;;;7.20;1.83;;;;;;;18.37;87.99;100655.19;4995727;28;20479;-54
2023/10/11 02:01:30;;;;;;;6.65;2.00;;;;;;;18.34;88.76;100658.44;4996018;28;20434;-53
2023/10/11 02:04:03;;;;;;;5.20;2.13;;;;;;;18.32;89.08;100661.41;4995328;28;20033;-53
2023/10/11 02:06:32;;;;;;;5.30;1.63;;;;;;;18.30;89.26;100654.59;4995479;28;20030;-52
2023/10/11 02:08:59;;;;;;;4.50;1.65;;;;;;;18.19;89.32;100651.81;4995902;28;20080;-52
2023/10/11 02:11:29;;;;;;;5.40;1.90;;;;;;;18.19;89.32;100646.41;4995531;28;20109;-52
2023/10/11 02:14:00;;;;;;;3.85;1.63;;;;;;;18.06;89.69;100657.72;4995509;28;20137;-51
2023/10/11 02:16:31;;;;;;;3.70;1.45;;;;;;;18.17;90.05;100664.81;4993090;28;20379;-50
2023/10/11 02:19:00;;;;;;;3.72;1.45;;;;;;;18.14;88.69;100657.22;4995532;28;20034;-52
2023/10/11 02:21:29;;;;;;;3.88;1.58;;;;;;;18.19;89.33;100664.56;4985101;28;20032;-52
2023/10/11 02:23:59;;;;;;;4.25;1.60;;;;;;;18.18;89.81;100666.44;4976793;28;20035;-52
2023/10/11 02:26:31;;;;;;;5.47;1.70;;;;;;;18.15;89.78;100671.56;4992304;28;20026;-52
2023/10/11 02:29:00;;;;;;;6.05;2.10;;;;;;;18.20;89.05;100664.28;4994826;28;20033;-52
2023/10/11 02:31:31;;;;;;;7.60;2.13;;;;;;;18.21;86.46;100654.25;4994999;28;20109;-51
2023/10/11 02:34:19;;;;;;;4.05;1.92;;;;;;;18.16;86.47;100665.09;4995041;28;20026;-51
2023/10/11 02:36:55;;;;;;;8.07;2.25;;;;;;;18.14;85.53;100667.22;4994526;28;20040;-51
2023/10/11 02:39:21;;;;;;;8.95;2.60;;;;;;;18.06;86.07;100663.13;4994600;28;20035;-52
2023/10/11 02:41:57;;;;;;;9.55;3.08;;;;;;;17.94;86.68;100660.59;4993733;28;20446;-51
2023/10/11 02:44:24;;;;;;;8.27;2.72;;;;;;;17.97;86.47;100653.84;4994652;28;20069;-52
2023/10/11 02:46:51;;;;;;;9.57;2.80;;;;;;;18.02;86.87;100651.16;4994467;28;20042;-52
2023/10/11 02:49:20;;;;;;;10.07;3.03;;;;;;;17.84;86.96;100660.50;4994602;28;20099;-51
2023/10/11 02:51:59;;;;;;;11.60;2.80;;;;;;;17.96;86.46;100652.22;4995040;28;20030;-51
2023/10/11 02:54:46;;;;;;;9.05;3.30;;;;;;;17.79;87.31;100651.53;4994654;28;20550;-52
2023/10/11 02:57:21;;;;;;;9.80;3.13;;;;;;;17.89;86.52;100651.63;4993071;28;20102;-52
2023/10/11 02:59:50;;;;;;;9.00;2.88;;;;;;;17.75;87.20;100659.34;4983130;28;20034;-51
2023/10/11 03:02:17;;;;;;;10.38;3.42;;;;;;;17.65;87.64;100667.34;4974762;28;20038;-52
2023/10/11 03:04:43;;;;;;;10.57;3.20;;;;;;;17.70;87.39;100661.97;4982002;28;20038;-53
2023/10/11 03:07:23;;;;;;;12.90;3.45;;;;;;;17.66;87.06;100664.41;4977024;28;20027;-52
2023/10/11 03:09:50;;;;;;;11.95;3.95;;;;;;;17.59;87.89;100671.88;4981371;28;20042;-51
2023/10/11 03:12:30;;;;;;;10.52;3.25;;;;;;;17.62;87.32;100676.81;4987670;28;20258;-51
2023/10/11 03:14:56;;;;;;;11.40;3.75;;;;;;;17.56;87.08;100679.72;4997539;28;20033;-50
2023/10/11 03:17:23;;;;;;;8.77;3.45;;;;;;;17.60;87.29;100680.81;4976343;28;20067;-52
2023/10/11 03:19:52;;;;;;;10.85;3.95;;;;;;;17.57;86.40;100682.16;4981121;28;20034;-52
2023/10/11 03:22:21;;;;;;;10.85;3.65;;;;;;;17.61;85.83;100682.47;4988633;28;20030;-49
2023/10/11 03:24:59;;;;;;;7.25;3.15;;;;;;;17.55;85.97;100678.09;4974571;28;20029;-51
2023/10/11 03:27:27;;;;;;;15.93;3.95;;;;;;;17.60;85.02;100687.09;4974478;28;20052;-52
2023/10/11 03:29:55;;;;;;;13.05;3.65;;;;;;;17.57;84.85;100684.06;4974058;28;20093;-53
2023/10/11 03:32:25;;;;;;;12.85;3.65;;;;;;;17.54;85.44;100687.25;4974157;28;20057;-51
2023/10/11 03:34:51;;;;;;;10.23;3.22;;;;;;;17.61;84.36;100694.13;4978905;28;20026;-52
2023/10/11 03:37:20;;;;;;;9.82;3.05;;;;;;;17.59;82.68;100701.66;4993428;28;20100;-53
2023/10/11 03:39:56;;;;;;;6.63;2.65;;;;;;;17.55;81.88;100700.56;4992367;28;20027;-52
2023/10/11 03:45:09;;;;;;;7.95;2.70;;;;;;;17.32;81.90;100711.66;4990931;28;20049;-51
2023/10/11 03:47:37;;;;;;;6.18;2.70;;;;;;;17.26;81.92;100718.91;4992707;28;20058;-53
2023/10/11 03:50:06;;;;;;;4.70;2.30;;;;;;;17.22;82.37;100711.56;4993199;28;20050;-52
2023/10/11 03:52:32;;;;;;;6.68;2.67;;;;;;;17.20;82.65;100719.91;4993746;28;20355;-52
2023/10/11 03:55:09;;;;;;;11.57;2.55;;;;;;;17.23;82.04;100724.00;4991083;28;20058;-53
2023/10/11 03:57:42;;;;;;;7.25;2.50;;;;;;;17.35;80.83;100736.31;4992788;28;20035;-53
2023/10/11 04:03:03;;;;;;;4.25;2.03;;;;;;;17.31;80.50;100731.66;4993343;28;20034;-51
2023/10/11 04:05:34;;;;;;;6.00;2.00;;;;;;;17.23;80.41;100724.00;4991130;28;20034;-55
2023/10/11 04:08:05;;;;;;;6.03;2.38;;;;;;;17.14;80.55;100724.44;4992938;28;20105;-53
2023/10/11 04:10:54;;;;;;;7.55;2.85;;;;;;;17.20;79.71;100728.03;4984952;23;20078;-52
2023/10/11 04:13:25;;;;;;;5.07;2.22;;;;;;;17.13;80.00;100724.72;4963447;28;20193;-52
2023/10/11 04:15:55;;;;;;;10.73;3.35;;;;;;;17.03;80.22;100732.69;4990728;28;20502;-52
2023/10/11 04:18:43;;;;;;;12.35;3.13;;;;;;;16.94;81.19;100737.72;4990245;28;20022;-53
2023/10/11 04:23:39;;;;;;;9.30;2.58;;;;;;;16.98;81.31;100744.25;4987970;28;20022;-53
2023/10/11 04:26:23;;;;;;;10.65;3.20;;;;;;;16.77;82.28;100751.28;4973128;28;20480;-53
2023/10/11 04:28:52;;;;;;;11.57;3.72;;;;;;;16.90;81.44;100752.81;4972410;28;20022;-50
2023/10/11 04:31:35;;;;;;;12.40;3.72;;;;;;;16.79;81.95;100753.75;4954206;28;20034;-50
2023/10/11 04:34:11;;;;;;;8.18;3.05;;;;;;;16.84;81.63;100760.03;4954183;28;20035;-52
2023/10/11 04:36:43;;;;;;;7.75;3.30;;;;;;;16.67;82.33;100758.41;4953518;28;20039;-51
2023/10/11 04:39:16;;;;;;;8.77;4.25;;;;;;;16.70;82.45;100752.47;4954276;28;20495;-48
2023/10/11 04:41:52;;;;;;;9.98;3.50;;;;;;;16.56;82.79;100762.84;4987994;28;20038;-51
2023/10/11 04:44:18;;;;;;;14.60;4.43;;;;;;;16.62;82.28;100781.56;4988413;28;20030;-51
2023/10/11 04:46:55;;;;;;;10.20;4.47;;;;;;;16.74;82.12;100768.00;4992143;28;20399;-52
2023/10/11 04:49:23;;;;;;;11.77;4.45;;;;;;;16.56;82.24;100779.06;4992545;28;20435;-53
2023/10/11 04:51:49;;;;;;;19.60;5.03;;;;;;;16.49;83.45;100779.22;4984909;28;20121;-50
2023/10/11 04:54:18;;;;;;;15.75;4.38;;;;;;;16.38;84.00;100782.84;4978507;28;20041;-52
2023/10/11 04:59:36;;;;;;;19.33;5.25;;;;;;;16.42;82.81;100773.16;4987548;28;20023;-53
2023/10/11 05:02:08;;;;;;;17.75;5.85;;;;;;;16.35;82.31;100770.63;4972784;28;20027;-53
2023/10/11 05:04:41;;;;;;;17.00;5.10;;;;;;;16.24;81.72;100765.31;4971256;28;20034;-51
2023/10/11 05:07:08;;;;;;;21.48;6.20;;;;;;;16.24;81.48;100774.22;4972693;28;20031;-52
2023/10/11 05:09:39;;;;;;;16.98;5.65;;;;;;;16.35;80.79;100767.09;4972765;28;20051;-52
2023/10/11 05:12:08;;;;;;;20.98;5.15;;;;;;;16.47;79.98;100769.72;4972883;28;20037;-52
2023/10/11 05:14:56;;;;;;;16.23;5.60;;;;;;;16.24;81.14;100773.41;4971649;28;20031;-52
2023/10/11 05:19:56;;;;;;;19.40;5.72;;;;;;;16.20;79.99;100783.03;4972954;28;20062;-52
2023/10/11 05:22:49;;;;;;;13.82;5.28;;;;;;;16.14;79.71;100786.72;4971733;28;20027;-52
2023/10/11 05:28:07;;;;;;;14.40;5.60;;;;;;;16.09;79.56;100790.16;4972967;28;20026;-51
2023/10/11 05:30:37;;;;;;;13.25;5.18;;;;;;;16.17;78.97;100789.78;4972080;28;20031;-52
2023/10/11 05:52:17;;;;;;;22.48;5.50;;;;;;;16.03;79.15;100781.16;4972695;28;20034;-51
2023/10/11 05:54:45;;;;;;;13.10;4.85;;;;;;;16.08;79.06;100789.34;4972743;28;20078;-52
2023/10/11 05:57:13;;;;;;;16.73;6.13;;;;;;;15.99;78.86;100787.28;4974246;28;20035;-51
2023/10/11 05:59:47;;;;;;;16.25;5.60;;;;;;;16.03;78.63;100781.16;4975635;28;20038;-51
2023/10/11 06:02:13;;;;;;;15.52;5.55;;;;;;;16.14;78.42;100792.94;4976173;28;20054;-51
2023/10/11 06:04:40;;;;;;;18.83;5.70;;;;;;;15.98;78.94;100794.56;4960251;28;20073;-51
2023/10/11 06:07:07;;;;;;;14.18;5.25;;;;;;;16.02;79.05;100787.63;4973996;28;20027;-50
2023/10/11 06:09:43;;;;;;;19.52;6.10;;;;;;;16.04;78.54;100792.75;4975546;28;20054;-51
2023/10/11 06:12:33;;;;;;;21.10;6.60;;;;;;;15.88;79.84;100774.66;4975891;28;20022;-51
2023/10/11 06:14:57;;;;;;;17.35;5.40;;;;;;;15.93;79.27;100775.56;4975635;28;20035;-50
2023/10/11 06:17:33;;;;;;;17.48;5.38;;;;;;;15.99;79.20;100780.03;4973787;28;20457;-51
2023/10/11 06:22:49;;;;;;;20.42;5.68;;;;;;;15.91;79.43;100788.50;4975831;28;20041;-50
2023/10/11 06:25:22;;;;;;;12.75;5.38;;;;;;;15.93;79.63;100790.94;4974686;28;20038;-51
2023/10/11 06:30:27;;;;;;;17.48;5.82;;;;;;;15.93;79.71;100804.44;4975585;28;20159;-52
2023/10/11 06:32:56;;;;;;;15.75;5.72;;;;;;;16.02;79.50;100817.31;4975400;28;20031;-51
2023/10/11 06:35:25;;;;;;;16.98;6.18;;;;;;;15.99;79.67;100806.16;4974139;28;20038;-51
2023/10/11 06:37:55;;;;;;;19.42;6.10;;;;;;;16.03;80.02;100808.16;4975239;28;20081;-52
2023/10/11 06:43:12;;;;;;;20.02;6.70;;;;;;;15.89;81.13;100808.72;4964050;28;20450;-51
2023/10/11 06:45:40;;;;;;;14.43;5.85;;;;;;;15.88;81.57;100807.03;4972717;28;20047;-51
2023/10/11 06:48:06;;;;;;;21.88;6.47;;;;;;;15.82;82.01;100788.09;4975105;28;20066;-50
2023/10/11 06:50:37;;;;;;;21.10;6.82;;;;;;;15.81;81.94;100789.13;4975147;28;20023;-51
2023/10/11 06:53:07;;;;;;;17.73;6.20;;;;;;;15.96;81.77;100782.38;4965014;28;20110;-49
2023/10/11 06:55:34;;;;;;;18.75;6.70;;;;;;;15.77;82.29;100779.91;4960994;28;20177;-51
2023/10/11 06:58:05;;;;;;;18.95;6.20;;;;;;;15.74;82.69;100777.66;4973434;28;20499;-49
2023/10/11 07:00:37;;;;;;;15.70;6.28;;;;;;;15.83;81.84;100791.59;4975103;28;20034;-52
2023/10/11 07:03:26;;;;;;;16.92;6.72;;;;;;;15.81;82.58;100799.09;4974662;28;20027;-51
2023/10/11 07:06:09;;;;;;;19.67;5.78;;;;;;;15.69;82.87;100809.94;4972834;28;20022;-49
2023/10/11 07:08:36;;;;;;;22.42;7.47;;;;;;;15.66;83.01;100794.25;4971545;28;20039;-51
2023/10/11 07:16:19;;;;;;;26.75;7.05;;;;;;;15.74;83.20;100810.03;4974539;28;20125;-52
2023/10/11 07:18:54;;;;;;;27.27;7.03;;;;;;;15.63;83.74;100808.22;4973897;28;20497;-52
2023/10/11 07:21:27;;;;;;;13.70;6.55;;;;;;;15.74;83.64;100820.03;4974730;28;20030;-52
2023/10/11 07:29:00;;;;;;;22.60;6.72;;;;;;;15.72;83.59;100817.56;4972445;28;20391;-50
2023/10/11 07:31:38;;;;;;;16.75;6.05;;;;;;;15.68;83.70;100810.19;4974367;28;20031;-51
2023/10/11 07:34:06;;;;;;;25.88;6.97;;;;;;;15.66;83.61;100817.72;4974334;28;20026;-50
2023/10/11 07:36:36;;;;;;;26.27;7.68;;;;;;;15.81;82.98;100824.19;4973728;28;20030;-51
2023/10/11 07:39:14;;;;;;;18.98;6.85;;;;;;;15.82;82.84;100828.56;4972054;28;20051;-50
2023/10/11 07:41:44;;;;;;;20.20;6.60;;;;;;;15.83;83.30;100830.19;4974131;28;20030;-52
2023/10/11 07:44:12;;;;;;;17.85;5.90;;;;;;;15.79;83.19;100839.00;4974185;28;20051;-52
2023/10/11 07:46:39;;;;;;;15.63;6.22;;;;;;;15.84;83.08;100828.31;4973721;28;20034;-52
2023/10/11 07:49:14;;;;;;;23.02;6.28;;;;;;;15.90;82.94;100826.53;4969268;28;20019;-52
2023/10/11 07:51:41;;;;;;;14.68;6.10;;;;;;;15.89;83.30;100824.91;4972721;28;20035;-52
2023/10/11 07:54:08;;;;;;;19.08;5.95;;;;;;;15.87;83.04;100821.59;4955546;28;20042;-52
2023/10/11 07:56:37;;;;;;;21.98;7.28;;;;;;;15.80;83.31;100829.84;4954423;28;20058;-52
2023/10/11 07:59:11;;;;;;;22.13;5.90;;;;;;;15.87;83.05;100829.69;4957465;28;20089;-53
2023/10/11 08:01:44;;;;;;;16.25;5.85;;;;;;;15.96;82.73;100831.78;4962643;28;20383;-53
2023/10/11 08:04:18;;;;;;;14.07;5.80;;;;;;;15.92;82.62;100832.50;4972063;28;20058;-50
2023/10/11 08:06:45;;;;;;;22.75;6.57;;;;;;;16.01;83.01;100826.47;4973886;28;20398;-52
2023/10/11 08:09:19;;;;;;;20.88;6.57;;;;;;;15.92;83.46;100827.91;4972075;28;20042;-52
2023/10/11 08:11:59;;;;;;;18.20;6.40;;;;;;;15.89;83.68;100822.19;4963826;28;20118;-52
2023/10/11 08:14:28;;;;;;;16.20;5.85;;;;;;;15.96;83.26;100833.66;4954092;28;20387;-50
2023/10/11 08:16:59;;;;;;;22.15;6.60;;;;;;;16.04;82.69;100833.25;4953923;28;20113;-53
2023/10/11 08:19:26;;;;;;;25.30;6.35;;;;;;;16.09;82.51;100825.25;4953215;28;20086;-52
2023/10/11 08:21:55;;;;;;;20.35;6.45;;;;;;;16.19;82.07;100830.03;4971038;28;20050;-52
2023/10/11 08:24:25;;;;;;;23.95;6.35;;;;;;;16.17;82.08;100838.38;4972752;28;20034;-52
2023/10/11 08:26:53;;;;;;;17.90;6.78;;;;;;;16.01;82.82;100841.88;4972640;28;20497;-54
2023/10/11 08:29:28;;;;;;;16.80;5.95;;;;;;;15.97;83.34;100849.59;4973398;28;20055;-51
2023/10/11 08:31:58;;;;;;;14.82;5.85;;;;;;;16.01;83.32;100847.25;4971659;28;20034;-51
2023/10/11 08:34:28;;;;;;;18.52;6.40;;;;;;;15.87;83.44;100852.13;4972410;28;20085;-52
2023/10/11 08:36:57;;;;;;;15.20;5.57;;;;;;;16.04;83.46;100844.88;4973020;28;20042;-50
2023/10/11 08:39:42;;;;;;;14.45;6.18;;;;;;;16.01;82.86;100858.06;4973387;28;20022;-52
2023/10/11 08:42:12;;;;;;;20.88;5.72;;;;;;;15.89;83.50;100849.19;4970178;28;20102;-51
2023/10/11 08:44:45;;;;;;;24.73;6.00;;;;;;;15.82;83.85;100852.00;4972357;28;20118;-52
2023/10/11 08:47:21;;;;;;;17.33;6.35;;;;;;;15.94;83.49;100858.22;4973292;28;20047;-52
2023/10/11 08:49:51;;;;;;;18.13;5.80;;;;;;;16.01;82.98;100853.47;4973255;28;20027;-52
2023/10/11 08:52:25;;;;;;;17.00;5.90;;;;;;;15.93;82.59;100853.84;4969420;28;20399;-52
2023/10/11 08:54:52;;;;;;;20.42;6.03;;;;;;;15.81;82.16;100844.97;4971910;28;20306;-51
2023/10/11 08:57:26;;;;;;;17.38;5.45;;;;;;;15.78;82.74;100853.56;4973056;28;20503;-52
2023/10/11 08:59:58;;;;;;;19.50;5.93;;;;;;;15.75;82.40;100846.75;4973007;28;20439;-52
2023/10/11 09:02:30;;;;;;;19.85;5.32;;;;;;;15.58;83.48;100856.63;4972060;28;20023;-53
2023/10/11 09:05:07;;;;;;;16.15;5.60;;;;;;;15.56;83.78;100864.97;4969915;28;20031;-53
2023/10/11 09:07:38;;;;;;;19.90;5.88;;;;;;;15.78;82.83;100849.00;4954069;28;20431;-52
2023/10/11 09:10:40;;;;;;;13.93;4.72;;;;;;;15.64;83.07;100865.69;4953501;28;20575;-53
2023/10/11 09:13:08;;;;;;;13.43;5.45;;;;;;;15.61;82.94;100868.84;4961401;28;20193;-54
2023/10/11 09:15:44;;;;;;;13.73;5.35;;;;;;;15.56;82.61;100856.06;4971371;28;20046;-52
2023/10/11 09:18:18;;;;;;;16.30;5.53;;;;;;;15.44;83.08;100848.00;4973274;28;20412;-51
2023/10/11 09:21:34;;;;;;;16.52;5.15;;;;;;;15.48;82.55;100862.63;4972998;28;20031;-51
2023/10/11 09:23:39;;;;;;;15.05;5.05;;;;;;;15.57;82.12;100868.50;4971237;28;20483;-53
2023/10/11 09:26:08;;;;;;;14.18;4.85;;;;;;;15.44;82.21;100872.28;4969379;28;20715;-52
2023/10/11 09:28:40;;;;;;;12.63;4.70;;;;;;;15.52;81.95;100881.88;4972942;28;20084;-52
2023/10/11 09:31:21;;;;;;;15.75;5.07;;;;;;;15.38;82.41;100886.72;4974527;28;20023;-52
2023/10/11 09:33:52;;;;;;;18.65;4.68;;;;;;;15.62;80.48;100895.59;4975648;28;20034;-49
2023/10/11 09:36:20;;;;;;;12.18;4.47;;;;;;;15.48;81.28;100895.00;4972963;28;20075;-52
2023/10/11 09:38:54;;;;;;;11.00;4.90;;;;;;;15.39;81.40;100891.06;4957358;28;20035;-51
2023/10/11 09:41:44;;;;;;;16.83;5.05;;;;;;;15.48;80.32;100892.31;4961030;28;20038;-52
2023/10/11 09:44:10;;;;;;;18.65;4.38;;;;;;;15.58;80.43;100892.53;4968114;28;20022;-52
2023/10/11 09:46:38;;;;;;;11.57;3.92;;;;;;;15.47;80.06;100896.06;4974816;28;20026;-52
2023/10/11 09:49:12;;;;;;;14.55;4.22;;;;;;;15.41;79.87;100886.22;4976722;28;20030;-52
2023/10/11 09:51:46;;;;;;;20.08;5.75;;;;;;;15.29;80.84;100905.13;4975362;28;20220;-53
2023/10/11 09:54:14;;;;;;;15.75;4.40;;;;;;;15.45;80.51;100900.88;4976378;28;20119;-51
2023/10/11 09:56:57;;;;;;;14.15;4.55;;;;;;;15.20;81.22;100897.63;4975954;28;20475;-52
2023/10/11 09:59:44;;;;;;;16.38;4.32;;;;;;;15.16;81.57;100893.78;4957262;28;20037;-51
2023/10/11 10:02:20;;;;;;;18.02;4.65;;;;;;;15.31;81.05;100883.31;4960516;28;20073;-52
2023/10/11 10:04:49;;;;;;;13.85;4.72;;;;;;;15.38;80.64;100892.13;4973558;28;20050;-52
2023/10/11 10:07:22;;;;;;;11.35;4.25;;;;;;;15.23;81.54;100889.06;4975150;28;20027;-52
2023/10/11 10:09:52;;;;;;;11.52;4.25;;;;;;;15.18;81.29;100897.84;4975721;28;20042;-53
2023/10/11 10:12:25;;;;;;;16.38;4.28;;;;;;;15.28;81.30;100899.97;4975408;28;20470;-53
2023/10/11 10:15:14;;;;;;;9.63;3.75;;;;;;;15.04;82.11;100899.13;4975366;28;20031;-54
2023/10/11 10:18:05;;;;;;;12.48;3.50;;;;;;;14.99;82.09;100899.84;4975175;28;20121;-53
2023/10/11 10:20:43;;;;;;;14.52;4.07;;;;;;;15.16;82.29;100904.56;4975194;28;20031;-52
2023/10/11 10:23:15;;;;;;;11.90;4.35;;;;;;;15.06;82.38;100894.34;4974937;28;20035;-52
2023/10/11 10:25:48;;;;;;;6.55;3.30;;;;;;;15.15;82.06;100897.50;4973870;28;20045;-53
2023/10/11 10:28:35;;;;;;;15.68;4.97;;;;;;;15.17;81.85;100898.09;4975172;28;20500;-52
2023/10/11 10:31:12;;;;;;;13.35;4.10;;;;;;;15.02;81.26;100893.97;4974720;28;20121;-53
2023/10/11 10:33:42;;;;;;;13.10;4.15;;;;;;;14.99;81.45;100901.72;4974690;28;20502;-52
2023/10/11 10:36:32;;;;;;;12.65;4.15;;;;;;;14.94;81.24;100913.22;4955863;28;20032;-51
2023/10/11 10:39:01;;;;;;;13.57;3.72;;;;;;;14.89;81.70;100904.19;4953297;28;20050;-52
2023/10/11 10:41:30;;;;;;;16.35;4.47;;;;;;;14.84;81.60;100902.19;4956056;28;20444;-52
2023/10/11 10:44:06;;;;;;;18.63;4.40;;;;;;;14.84;80.99;100886.00;4955486;28;20031;-52
2023/10/11 10:46:34;;;;;;;13.13;4.25;;;;;;;14.79;81.08;100883.19;4973734;28;20475;-52
2023/10/11 10:49:03;;;;;;;10.05;3.15;;;;;;;14.84;80.54;100861.75;4974272;28;20084;-52
2023/10/11 10:51:35;;;;;;;13.45;5.38;;;;;;;14.76;80.46;100873.69;4975168;28;20030;-52
2023/10/11 10:54:14;;;;;;;16.35;7.93;;;;;;;14.48;81.84;100871.66;4975085;28;20054;-52
2023/10/11 10:56:48;;;;;;;11.43;4.78;;;;;;;14.57;81.54;100892.88;4963376;28;20041;-52
2023/10/11 10:59:20;;;;;;;11.95;3.60;;;;;;;14.56;81.74;100896.63;4954565;28;20663;-52
2023/10/11 11:01:48;;;;;;;9.90;3.13;;;;;;;14.57;82.04;100892.88;4955547;28;20122;-53
2023/10/11 11:04:22;;;;;;;9.00;3.58;;;;;;;14.62;81.20;100901.09;4955510;28;20519;-50
2023/10/11 11:06:50;;;;;;;8.85;3.20;;;;;;;14.64;80.96;100896.28;4955540;28;20047;-51
2023/10/11 11:09:19;;;;;;;9.52;3.65;;;;;;;14.69;80.80;100904.50;4955254;28;20040;-51
2023/10/11 11:11:49;;;;;;;8.88;3.47;;;;;;;14.52;80.66;100905.16;4955620;28;20122;-49
2023/10/11 11:14:23;;;;;;;11.70;3.65;;;;;;;14.57;80.09;100909.03;4955424;28;20023;-51
2023/10/11 11:17:00;;;;;;;8.93;3.13;;;;;;;14.63;79.25;100906.25;4955085;28;20036;-51
2023/10/11 11:19:26;;;;;;;8.88;3.20;;;;;;;14.65;78.35;100892.53;4967846;28;20046;-52
2023/10/11 11:22:11;;;;;;;9.90;2.92;;;;;;;14.63;78.37;100897.34;4973611;28;20054;-51
2023/10/11 11:24:38;;;;;;;8.30;2.90;;;;;;;14.67;77.22;100902.03;4970232;28;20049;-52
2023/10/11 11:27:15;;;;;;;10.68;2.75;;;;;;;14.67;77.03;100909.31;4974478;28;20607;-50
2023/10/11 11:29:42;;;;;;;8.77;2.40;;;;;;;14.43;77.78;100900.28;4974477;28;20027;-52
2023/10/11 11:32:16;;;;;;;8.27;3.00;;;;;;;14.54;76.99;100902.22;4968759;28;20568;-51
2023/10/11 11:35:02;;;;;;;10.07;2.80;;;;;;;14.49;75.75;100912.88;4959297;28;20497;-49
2023/10/11 11:37:34;;;;;;;6.47;2.60;;;;;;;14.55;75.78;100916.50;4972711;28;20030;-51
2023/10/11 11:40:19;;;;;;;6.82;2.90;;;;;;;14.64;74.87;100915.97;4965461;28;20031;-51
2023/10/11 11:42:47;;;;;;;7.35;2.97;;;;;;;14.46;75.40;100913.31;4967314;28;20069;-55
2023/10/11 11:45:17;;;;;;;14.52;2.95;;;;;;;14.40;75.69;100912.34;4973572;28;20073;-56
2023/10/11 11:47:56;;;;;;;8.68;3.03;;;;;;;14.40;75.69;100916.94;4973995;28;20070;-61
2023/10/11 11:50:30;;;;;;;11.20;3.00;;;;;;;14.32;75.85;100920.75;4964535;28;20031;-56
2023/10/11 11:52:57;;;;;;;7.10;2.70;;;;;;;14.44;75.35;100929.72;4955182;28;20019;-56
2023/10/11 11:55:24;;;;;;;11.85;3.30;;;;;;;14.43;75.03;100927.22;4978227;28;20066;-56
2023/10/11 11:57:50;;;;;;;8.75;2.88;;;;;;;14.27;75.54;100934.91;4969391;28;20403;-56
2023/10/11 12:02:54;;;;;;;9.77;2.90;;;;;;;14.35;75.19;100931.06;4977734;28;20030;-50
2023/10/11 12:05:21;;;;;;;9.77;3.25;;;;;;;14.37;74.97;100928.13;4973829;28;20102;-52
2023/10/11 12:07:51;;;;;;;11.38;3.35;;;;;;;14.33;75.48;100935.06;4973593;28;20089;-51
2023/10/11 12:10:23;;;;;;;12.90;3.67;;;;;;;14.44;75.43;100926.19;4968722;28;20078;-50
2023/10/11 12:12:54;;;;;;;14.57;3.55;;;;;;;14.30;75.86;100936.31;4973984;28;20070;-51
2023/10/11 12:15:21;;;;;;;10.73;3.35;;;;;;;14.36;74.86;100935.41;4973586;28;20472;-51
2023/10/11 12:17:54;;;;;;;8.23;3.15;;;;;;;14.33;74.96;100946.66;4973397;28;20038;-50
2023/10/11 12:20:33;;;;;;;9.23;3.47;;;;;;;14.40;74.48;100941.16;4974218;28;20027;-52
2023/10/11 12:23:07;;;;;;;9.43;3.33;;;;;;;14.42;74.31;100937.19;4968203;28;20031;-50
2023/10/11 12:25:35;;;;;;;14.07;3.10;;;;;;;14.50;74.18;100939.59;4961715;28;20046;-51
2023/10/11 12:28:04;;;;;;;12.27;3.22;;;;;;;14.45;74.24;100942.13;4963294;28;20031;-51
2023/10/11 12:30:34;;;;;;;10.07;3.08;;;;;;;14.56;73.91;100950.50;4954064;28;20069;-51
2023/10/11 12:33:08;;;;;;;11.80;3.95;;;;;;;14.56;72.95;100950.50;4962952;28;20035;-51
2023/10/11 12:35:41;;;;;;;8.90;3.03;;;;;;;14.55;73.72;100957.75;4958322;28;20022;-52
2023/10/11 12:38:12;;;;;;;10.07;3.72;;;;;;;14.28;74.66;100957.28;4956669;28;20037;-52